createdAt,value
2022-08-08T00:01:18.778Z,21.28
2022-08-08T00:04:02.815Z,21.27
2022-08-08T00:06:42.998Z,21.32
2022-08-08T00:09:23.669Z,21.33
2022-08-08T00:12:09.445Z,21.37
2022-08-08T00:15:00.081Z,21.34
2022-08-08T00:18:03.804Z,21.33
2022-08-08T00:20:46.183Z,21.21
2022-08-08T00:23:28.537Z,21.27
2022-08-08T00:26:26.340Z,21.27
2022-08-08T00:29:10.072Z,21.37
2022-08-08T00:32:21.039Z,21.36
2022-08-08T00:35:20.086Z,21.34
2022-08-08T00:38:32.240Z,21.43
2022-08-08T00:46:01.272Z,21.43
2022-08-08T00:49:02.598Z,21.41
2022-08-08T00:51:54.923Z,21.45
2022-08-08T00:55:00.516Z,21.44
2022-08-08T00:58:14.666Z,21.47
2022-08-08T01:00:58.975Z,21.48
2022-08-08T01:04:04.491Z,21.46
2022-08-08T01:07:06.047Z,21.42
2022-08-08T01:10:15.976Z,21.42
2022-08-08T01:13:23.015Z,21.42
2022-08-08T01:16:48.714Z,21.44
2022-08-08T01:20:05.049Z,21.47
2022-08-08T01:24:02.742Z,21.40
2022-08-08T01:26:19.097Z,21.29
2022-08-08T01:29:24.890Z,21.22
2022-08-08T01:32:44.812Z,21.17
2022-08-08T01:36:16.838Z,21.21
2022-08-08T01:39:23.556Z,21.19
2022-08-08T01:42:08.180Z,21.09
2022-08-08T01:44:50.417Z,21.26
2022-08-08T01:48:13.984Z,21.10
2022-08-08T01:50:50.403Z,20.99
2022-08-08T01:55:16.692Z,20.97
2022-08-08T01:56:47.378Z,21.01
2022-08-08T02:00:02.437Z,20.93
2022-08-08T02:03:55.809Z,20.87
2022-08-08T02:06:32.986Z,20.91
2022-08-08T02:10:01.585Z,20.91
2022-08-08T02:12:30.025Z,20.96
2022-08-08T02:15:11.080Z,20.92
2022-08-08T02:17:55.791Z,20.96
2022-08-08T02:21:02.342Z,20.92
2022-08-08T02:23:35.692Z,20.92
2022-08-08T02:26:15.869Z,20.90
2022-08-08T02:29:18.906Z,20.94
2022-08-08T02:32:28.547Z,21.04
2022-08-08T02:35:35.692Z,21.03
2022-08-08T02:38:54.395Z,20.97
2022-08-08T02:42:04.662Z,21.01
2022-08-08T02:45:21.419Z,20.98
2022-08-08T02:48:45.291Z,20.89
2022-08-08T02:51:47.584Z,20.82
2022-08-08T02:55:02.301Z,20.82
2022-08-08T02:58:26.581Z,20.84
2022-08-08T03:01:50.893Z,20.77
2022-08-08T03:05:04.439Z,20.81
2022-08-08T03:08:30.747Z,20.82
2022-08-08T03:12:01.768Z,20.85
2022-08-08T03:15:59.843Z,20.86
2022-08-08T03:18:30.995Z,20.86
2022-08-08T03:21:09.664Z,20.82
2022-08-08T03:23:59.531Z,20.87
2022-08-08T03:26:42.870Z,20.78
2022-08-08T03:29:26.985Z,20.72
2022-08-08T03:32:32.073Z,20.77
2022-08-08T03:35:09.799Z,20.81
2022-08-08T03:38:53.660Z,20.88
2022-08-08T03:40:32.075Z,20.83
2022-08-08T03:43:16.711Z,20.79
2022-08-08T03:46:06.173Z,20.75
2022-08-08T03:49:56.585Z,20.80
2022-08-08T03:51:51.191Z,20.87
2022-08-08T03:54:41.564Z,20.91
2022-08-08T03:58:32.275Z,20.84
2022-08-08T04:00:18.155Z,20.81
2022-08-08T04:03:00.968Z,20.82
2022-08-08T04:05:36.304Z,20.75
2022-08-08T04:08:32.981Z,20.68
2022-08-08T04:11:10.656Z,20.64
2022-08-08T04:14:03.609Z,20.54
2022-08-08T04:16:40.367Z,20.51
2022-08-08T04:19:24.166Z,20.49
2022-08-08T04:22:01.027Z,20.50
2022-08-08T04:24:40.304Z,20.39
2022-08-08T04:27:42.740Z,20.38
2022-08-08T04:30:18.209Z,20.30
2022-08-08T04:32:54.304Z,20.23
2022-08-08T04:35:34.473Z,20.29
2022-08-08T04:38:21.145Z,20.30
2022-08-08T04:40:54.295Z,20.28
2022-08-08T04:43:31.999Z,20.26
2022-08-08T04:46:23.507Z,20.20
2022-08-08T04:48:57.110Z,20.19
2022-08-08T04:51:54.836Z,20.25
2022-08-08T04:54:39.805Z,20.29
2022-08-08T04:57:12.736Z,20.26
2022-08-08T04:59:44.341Z,20.21
2022-08-08T05:02:20.276Z,20.22
2022-08-08T05:04:54.707Z,20.28
2022-08-08T05:07:37.842Z,20.33
2022-08-08T05:10:16.973Z,20.41
2022-08-08T05:13:01.897Z,20.47
2022-08-08T05:16:48.042Z,20.49
2022-08-08T05:18:34.237Z,20.53
2022-08-08T05:21:11.342Z,20.56
2022-08-08T05:23:46.420Z,20.62
2022-08-08T05:26:22.085Z,20.64
2022-08-08T05:29:06.206Z,20.54
2022-08-08T05:32:03.632Z,20.50
2022-08-08T05:34:38.755Z,20.54
2022-08-08T05:37:17.251Z,20.58
2022-08-08T05:39:55.355Z,20.58
2022-08-08T05:42:37.932Z,20.59
2022-08-08T05:45:25.701Z,20.57
2022-08-08T05:48:08.878Z,20.60
2022-08-08T05:50:41.744Z,20.43
2022-08-08T05:53:53.839Z,20.41
2022-08-08T05:56:11.530Z,20.37
2022-08-08T05:58:53.649Z,20.38
2022-08-08T06:01:55.638Z,20.37
2022-08-08T06:04:24.398Z,20.45
2022-08-08T06:07:04.834Z,20.50
2022-08-08T06:09:58.650Z,20.51
2022-08-08T06:12:31.540Z,20.37
2022-08-08T06:15:08.396Z,20.23
2022-08-08T06:17:51.138Z,20.23
2022-08-08T06:20:37.556Z,20.25
2022-08-08T06:23:13.127Z,20.37
2022-08-08T06:26:38.413Z,20.42
2022-08-08T06:28:56.992Z,20.46
2022-08-08T06:32:09.422Z,20.33
2022-08-08T06:34:31.585Z,20.45
2022-08-08T06:37:24.386Z,20.53
2022-08-08T06:40:07.328Z,20.61
2022-08-08T06:42:53.959Z,20.66
2022-08-08T06:45:28.477Z,20.72
2022-08-08T06:48:02.316Z,20.70
2022-08-08T06:50:40.119Z,20.61
2022-08-08T06:53:17.341Z,20.69
2022-08-08T06:56:02.260Z,20.70
2022-08-08T06:58:37.091Z,20.64
2022-08-08T07:02:16.413Z,20.65
2022-08-08T07:04:36.924Z,20.81
2022-08-08T07:07:10.373Z,20.80
2022-08-08T07:10:00.020Z,20.90
2022-08-08T07:12:48.052Z,20.94
2022-08-08T07:16:05.035Z,20.94
2022-08-08T07:18:55.848Z,21.03
2022-08-08T07:21:35.186Z,20.97
2022-08-08T07:24:09.849Z,21.03
2022-08-08T07:27:04.841Z,21.08
2022-08-08T07:30:02.452Z,21.09
2022-08-08T07:32:36.757Z,21.13
2022-08-08T07:35:08.921Z,21.12
2022-08-08T07:37:56.416Z,21.23
2022-08-08T07:40:45.910Z,21.42
2022-08-08T07:43:37.111Z,21.63
2022-08-08T07:46:23.148Z,21.89
2022-08-08T07:48:57.191Z,22.03
2022-08-08T07:51:45.070Z,22.03
2022-08-08T07:54:27.551Z,22.31
2022-08-08T07:57:17.126Z,22.24
2022-08-08T08:00:00.892Z,22.21
2022-08-08T08:02:42.437Z,22.34
2022-08-08T08:05:33.505Z,22.49
2022-08-08T08:08:20.519Z,22.56
2022-08-08T08:10:55.342Z,22.46
2022-08-08T08:13:42.592Z,22.43
2022-08-08T08:16:32.618Z,22.42
2022-08-08T08:19:08.031Z,22.35
2022-08-08T08:21:56.980Z,22.25
2022-08-08T08:24:42.858Z,22.20
2022-08-08T08:27:14.645Z,22.22
2022-08-08T08:29:53.471Z,22.23
2022-08-08T08:32:35.805Z,22.35
2022-08-08T08:35:18.125Z,22.43
2022-08-08T08:38:17.929Z,22.39
2022-08-08T08:41:03.207Z,22.38
2022-08-08T08:43:38.242Z,22.39
2022-08-08T08:46:18.969Z,22.40
2022-08-08T08:48:52.730Z,22.42
2022-08-08T08:51:29.018Z,22.57
2022-08-08T08:54:04.737Z,22.55
2022-08-08T08:56:38.598Z,22.57
2022-08-08T08:59:17.941Z,22.50
2022-08-08T09:01:56.745Z,22.62
2022-08-08T09:04:38.655Z,22.67
2022-08-08T09:07:24.166Z,22.72
2022-08-08T09:10:18.072Z,22.76
2022-08-08T09:12:53.302Z,22.79
2022-08-08T09:15:41.482Z,22.89
2022-08-08T09:18:13.478Z,22.90
2022-08-08T09:21:59.112Z,22.95
2022-08-08T09:23:40.792Z,22.89
2022-08-08T09:26:27.250Z,22.83
2022-08-08T09:29:08.241Z,22.80
2022-08-08T09:31:56.018Z,22.87
2022-08-08T09:34:37.591Z,22.88
2022-08-08T09:37:57.787Z,22.81
2022-08-08T09:40:14.430Z,22.86
2022-08-08T09:42:52.186Z,22.87
2022-08-08T09:46:00.750Z,22.85
2022-08-08T09:48:27.021Z,22.91
2022-08-08T09:51:06.126Z,22.95
2022-08-08T09:53:56.422Z,22.98
2022-08-08T09:56:41.013Z,22.94
2022-08-08T09:59:50.242Z,23.01
2022-08-08T10:02:15.767Z,22.98
2022-08-08T10:04:47.815Z,23.01
2022-08-08T10:07:19.924Z,23.03
2022-08-08T10:09:59.646Z,23.07
2022-08-08T10:12:54.350Z,23.12
2022-08-08T10:15:28.586Z,23.03
2022-08-08T10:18:09.241Z,23.02
2022-08-08T10:20:57.646Z,23.10
2022-08-08T10:23:47.098Z,23.15
2022-08-08T10:26:25.734Z,23.11
2022-08-08T10:29:08.338Z,23.14
2022-08-08T10:32:00.573Z,23.13
2022-08-08T10:34:30.886Z,23.08
2022-08-08T10:37:01.579Z,23.09
2022-08-08T10:39:54.446Z,23.13
2022-08-08T10:42:27.477Z,23.15
2022-08-08T10:45:09.581Z,23.14
2022-08-08T10:47:43.764Z,23.15
2022-08-08T10:50:15.784Z,23.11
2022-08-08T10:52:46.493Z,22.95
2022-08-08T10:55:39.459Z,22.81
2022-08-08T10:58:10.704Z,22.79
2022-08-08T11:01:02.920Z,22.77
2022-08-08T11:04:00.539Z,22.99
2022-08-08T11:06:36.639Z,22.95
2022-08-08T11:09:19.960Z,22.99
2022-08-08T11:12:05.832Z,23.06
2022-08-08T11:14:58.061Z,23.13
2022-08-08T11:18:01.297Z,23.15
2022-08-08T11:20:27.917Z,23.25
2022-08-08T11:22:59.074Z,23.21
2022-08-08T11:25:53.221Z,23.25
2022-08-08T11:28:29.840Z,23.27
2022-08-08T11:31:04.907Z,23.24
2022-08-08T11:33:52.447Z,23.27
2022-08-08T11:36:27.702Z,23.33
2022-08-08T11:38:59.765Z,23.40
2022-08-08T11:41:33.939Z,23.46
2022-08-08T11:44:07.104Z,23.33
2022-08-08T11:46:39.897Z,23.46
2022-08-08T11:49:17.465Z,23.55
2022-08-08T11:51:50.311Z,23.57
2022-08-08T11:54:38.066Z,23.65
2022-08-08T11:57:27.237Z,23.68
2022-08-08T12:00:05.551Z,23.69
2022-08-08T12:02:55.712Z,23.60
2022-08-08T12:05:38.856Z,23.65
2022-08-08T12:08:11.293Z,23.58
2022-08-08T12:10:49.247Z,23.61
2022-08-08T12:13:38.491Z,23.60
2022-08-08T12:16:18.635Z,23.54
2022-08-08T12:18:51.465Z,23.57
2022-08-08T12:21:59.312Z,23.61
2022-08-08T12:24:27.944Z,23.61
2022-08-08T12:26:59.348Z,23.64
2022-08-08T12:29:42.181Z,23.71
2022-08-08T12:32:17.044Z,23.95
2022-08-08T12:35:13.412Z,23.95
2022-08-08T12:38:02.610Z,24.08
2022-08-08T12:40:54.289Z,24.16
2022-08-08T12:43:43.587Z,24.20
2022-08-08T12:46:28.668Z,24.09
2022-08-08T12:52:00.283Z,24.05
2022-08-08T12:54:35.980Z,24.10
2022-08-08T12:57:17.078Z,24.01
2022-08-08T13:00:04.991Z,23.97
2022-08-08T13:02:37.105Z,23.96
2022-08-08T13:05:26.915Z,24.02
2022-08-08T13:08:16.144Z,24.08
2022-08-08T13:10:58.050Z,24.07
2022-08-08T13:13:37.664Z,24.11
2022-08-08T13:16:25.460Z,24.24
2022-08-08T13:19:01.694Z,24.24
2022-08-08T13:21:53.197Z,24.18
2022-08-08T13:24:46.430Z,24.18
2022-08-08T13:27:35.912Z,24.13
2022-08-08T13:30:10.626Z,24.32
2022-08-08T13:32:42.227Z,24.51
2022-08-08T13:35:24.834Z,24.78
2022-08-08T13:38:06.901Z,25.14
2022-08-08T13:40:40.930Z,25.44
2022-08-08T13:43:16.273Z,25.49
2022-08-08T13:45:48.360Z,25.43
2022-08-08T13:48:25.217Z,25.23
2022-08-08T13:51:25.084Z,25.07
2022-08-08T13:54:00.229Z,25.03
2022-08-08T13:56:44.847Z,24.96
2022-08-08T13:59:40.832Z,24.97
2022-08-08T14:02:22.464Z,25.08
2022-08-08T14:05:20.260Z,25.37
2022-08-08T14:08:01.641Z,25.75
2022-08-08T14:10:39.518Z,25.90
2022-08-08T14:13:20.903Z,25.77
2022-08-08T14:16:16.686Z,25.64
2022-08-08T14:18:54.790Z,25.54
2022-08-08T14:21:40.738Z,25.57
2022-08-08T14:24:34.435Z,25.50
2022-08-08T14:27:07.592Z,25.43
2022-08-08T14:29:39.552Z,25.57
2022-08-08T14:32:22.179Z,25.48
2022-08-08T14:35:04.529Z,25.46
2022-08-08T14:37:57.276Z,25.40
2022-08-08T14:40:31.450Z,25.36
2022-08-08T14:43:22.175Z,25.26
2022-08-08T14:46:02.291Z,25.19
2022-08-08T14:48:57.129Z,25.22
2022-08-08T14:51:51.852Z,25.45
2022-08-08T14:54:29.235Z,25.69
2022-08-08T14:57:04.183Z,25.76
2022-08-08T14:59:44.483Z,25.79
2022-08-08T15:02:30.887Z,25.89
2022-08-08T15:05:11.406Z,26.01
2022-08-08T15:07:44.635Z,26.16
2022-08-08T15:10:31.151Z,26.23
2022-08-08T15:13:08.840Z,26.31
2022-08-08T15:16:02.393Z,26.30
2022-08-08T15:18:35.890Z,26.30
2022-08-08T15:21:08.882Z,26.36
2022-08-08T15:23:39.759Z,26.43
2022-08-08T15:26:13.067Z,26.37
2022-08-08T15:28:41.673Z,26.07
2022-08-08T15:31:10.632Z,26.19
2022-08-08T15:33:58.902Z,26.29
2022-08-08T15:36:31.438Z,26.27
2022-08-08T15:38:59.763Z,26.34
2022-08-08T15:41:37.085Z,26.43
2022-08-08T15:44:13.859Z,26.58
2022-08-08T15:46:45.526Z,26.48
2022-08-08T15:49:21.073Z,26.31
2022-08-08T15:51:55.807Z,26.14
2022-08-08T15:54:38.158Z,25.80
2022-08-08T15:57:09.382Z,25.66
2022-08-08T16:00:05.687Z,25.68
2022-08-08T16:02:30.564Z,25.78
2022-08-08T16:04:59.563Z,25.87
2022-08-08T16:07:50.825Z,26.01
2022-08-08T16:13:11.481Z,26.17
2022-08-08T16:13:30.733Z,26.21
2022-08-08T16:15:59.756Z,26.37
2022-08-08T16:18:38.180Z,26.43
2022-08-08T16:21:26.463Z,26.51
2022-08-08T16:23:57.244Z,26.59
2022-08-08T16:26:34.745Z,26.69
2022-08-08T16:29:07.911Z,26.75
2022-08-08T16:31:40.507Z,26.76
2022-08-08T16:34:10.612Z,26.75
2022-08-08T16:36:40.777Z,26.67
2022-08-08T16:39:17.029Z,26.70
2022-08-08T16:42:01.821Z,26.50
2022-08-08T16:44:33.867Z,26.46
2022-08-08T16:47:16.424Z,26.59
2022-08-08T16:49:49.527Z,26.51
2022-08-08T16:55:06.176Z,26.55
2022-08-08T16:55:33.943Z,26.55
2022-08-08T16:58:14.834Z,26.48
2022-08-08T17:00:51.773Z,26.30
2022-08-08T17:03:25.322Z,26.11
2022-08-08T17:06:36.061Z,25.97
2022-08-08T17:09:05.718Z,26.01
2022-08-08T17:11:48.252Z,26.02
2022-08-08T17:14:27.179Z,25.91
2022-08-08T17:17:01.676Z,25.70
2022-08-08T17:19:37.468Z,25.58
2022-08-08T17:22:10.776Z,25.52
2022-08-08T17:24:43.163Z,25.42
2022-08-08T17:27:29.123Z,25.47
2022-08-08T17:30:27.630Z,25.37
2022-08-08T17:34:49.365Z,25.46
2022-08-08T17:35:55.875Z,25.47
2022-08-08T17:38:43.024Z,25.48
2022-08-08T17:41:15.043Z,25.61
2022-08-08T17:44:01.190Z,25.49
2022-08-08T17:46:39.290Z,25.50
2022-08-08T17:49:10.135Z,25.41
2022-08-08T17:51:43.676Z,25.39
2022-08-08T17:54:22.425Z,25.38
2022-08-08T17:56:54.176Z,25.44
2022-08-08T17:59:30.497Z,25.36
2022-08-08T18:02:04.874Z,25.30
2022-08-08T18:04:42.568Z,25.26
2022-08-08T18:08:02.978Z,25.27
2022-08-08T18:10:08.693Z,25.32
2022-08-08T18:12:37.434Z,25.28
2022-08-08T18:15:09.811Z,25.31
2022-08-08T18:18:05.039Z,25.22
2022-08-08T18:20:36.680Z,25.17
2022-08-08T18:23:14.740Z,25.18
2022-08-08T18:25:44.394Z,25.16
2022-08-08T18:28:14.307Z,25.13
2022-08-08T18:30:44.372Z,25.11
2022-08-08T18:33:36.420Z,25.10
2022-08-08T18:36:03.677Z,25.10
2022-08-08T18:38:32.423Z,25.11
2022-08-08T18:41:04.322Z,25.11
2022-08-08T18:43:38.002Z,25.14
2022-08-08T18:46:54.478Z,25.10
2022-08-08T18:49:04.197Z,25.12
2022-08-08T18:51:53.878Z,25.05
2022-08-08T18:54:27.375Z,25.05
2022-08-08T18:56:58.888Z,25.00
2022-08-08T18:59:34.608Z,24.91
2022-08-08T19:02:28.410Z,24.90
2022-08-08T19:04:57.822Z,24.84
2022-08-08T19:07:30.013Z,24.78
2022-08-08T19:10:14.759Z,24.78
2022-08-08T19:12:52.994Z,24.75
2022-08-08T19:15:23.883Z,24.74
2022-08-08T19:18:31.757Z,24.79
2022-08-08T19:20:49.189Z,24.81
2022-08-08T19:23:18.733Z,24.82
2022-08-08T19:26:26.958Z,24.86
2022-08-08T19:28:45.433Z,24.85
2022-08-08T19:31:17.036Z,24.84
2022-08-08T19:34:05.082Z,24.85
2022-08-08T19:36:40.771Z,24.83
2022-08-08T19:39:14.585Z,24.80
2022-08-08T19:41:44.391Z,24.81
2022-08-08T19:44:42.410Z,24.80
2022-08-08T19:47:01.567Z,24.81
2022-08-08T19:49:37.886Z,24.80
2022-08-08T19:52:10.505Z,24.82
2022-08-08T19:54:55.404Z,24.82
2022-08-08T19:57:48.604Z,24.80
2022-08-08T20:00:29.217Z,24.80
2022-08-08T20:03:15.161Z,24.80
2022-08-08T20:06:14.931Z,24.80
2022-08-08T20:08:48.142Z,24.79
2022-08-08T20:11:22.002Z,24.78
2022-08-08T20:14:12.970Z,24.96
2022-08-08T20:16:41.243Z,24.80
2022-08-08T20:19:12.177Z,24.81
2022-08-08T20:21:43.875Z,24.80
2022-08-08T20:24:15.675Z,24.81
2022-08-08T20:26:49.138Z,24.81
2022-08-08T20:29:18.324Z,25.01
2022-08-08T20:32:07.336Z,24.81
2022-08-08T20:34:36.708Z,24.80
2022-08-08T20:37:17.734Z,24.80
2022-08-08T20:39:51.910Z,24.81
2022-08-08T20:42:29.259Z,24.80
2022-08-08T20:45:02.034Z,24.79
2022-08-08T20:47:36.424Z,24.79
2022-08-08T20:50:10.086Z,24.78
2022-08-08T20:52:44.775Z,24.77
2022-08-08T20:55:22.892Z,24.77
2022-08-08T20:57:57.805Z,24.80
2022-08-08T21:00:28.050Z,24.81
2022-08-08T21:02:56.618Z,24.81
2022-08-08T21:05:31.825Z,24.81
2022-08-08T21:08:37.213Z,24.81
2022-08-08T21:10:53.525Z,24.82
2022-08-08T21:13:23.476Z,24.82
2022-08-08T21:16:18.277Z,24.83
2022-08-08T21:18:59.214Z,24.81
2022-08-08T21:21:41.060Z,24.81
2022-08-08T21:24:24.120Z,24.81
2022-08-08T21:26:58.870Z,24.81
2022-08-08T21:30:02.933Z,24.77
2022-08-08T21:32:25.086Z,24.77
2022-08-08T21:36:13.726Z,24.77
2022-08-08T21:37:55.649Z,24.77
2022-08-08T21:40:36.368Z,24.77
2022-08-08T21:43:08.219Z,24.77
2022-08-08T21:48:00.982Z,24.75
2022-08-08T21:48:40.310Z,24.76
2022-08-08T21:51:14.783Z,24.76
2022-08-08T21:54:34.917Z,24.71
2022-08-08T21:56:43.332Z,24.72
2022-08-08T21:59:24.227Z,24.73
2022-08-08T22:02:23.442Z,24.72
2022-08-08T22:04:55.654Z,24.67
2022-08-08T22:07:39.804Z,24.69
2022-08-08T22:10:18.181Z,24.69
2022-08-08T22:13:18.848Z,24.67
2022-08-08T22:15:59.439Z,24.66
2022-08-08T22:18:32.564Z,24.68
2022-08-08T22:21:14.097Z,24.68
2022-08-08T22:23:51.621Z,24.67
2022-08-08T22:26:30.932Z,24.67
2022-08-08T22:29:56.877Z,24.68
2022-08-08T22:31:58.778Z,24.68
2022-08-08T22:34:39.946Z,24.66
2022-08-08T22:37:14.837Z,24.66
2022-08-08T22:40:01.160Z,24.65
2022-08-08T22:42:52.520Z,24.64
2022-08-08T22:45:28.590Z,24.62
2022-08-08T22:47:59.040Z,24.62
2022-08-08T22:50:29.194Z,24.61
2022-08-08T22:54:28.439Z,24.59
2022-08-08T22:55:59.190Z,24.59
2022-08-08T22:58:34.405Z,24.58
2022-08-08T23:01:26.685Z,24.57
2022-08-08T23:04:00.416Z,24.54
2022-08-08T23:06:35.066Z,24.50
2022-08-08T23:09:09.607Z,24.48
2022-08-08T23:12:27.683Z,24.45
2022-08-08T23:14:30.812Z,24.44
2022-08-08T23:17:04.394Z,24.42
2022-08-08T23:19:36.291Z,24.42
2022-08-08T23:22:15.021Z,24.38
2022-08-08T23:24:49.247Z,24.19
2022-08-08T23:27:39.125Z,24.02
2022-08-08T23:30:12.941Z,23.83
2022-08-08T23:32:45.924Z,23.89
2022-08-08T23:35:17.442Z,23.52
2022-08-08T23:38:01.683Z,23.37
2022-08-08T23:40:32.051Z,23.21
2022-08-08T23:43:02.823Z,23.11
2022-08-08T23:48:59.633Z,23.11
2022-08-08T23:49:02.738Z,23.08
2022-08-08T23:51:41.655Z,23.00
2022-08-08T23:54:43.600Z,22.89
2022-08-08T23:56:58.626Z,22.82
2022-08-08T23:59:28.718Z,22.71
